Weather at Dallas Love Field

Public forecast

Using degrees Fahrenheit for public forecast. Weather courtesy of forecast.io.

Current aviation weather report (METAR) for Dallas Love Field

Retrieved 2021/09/27 04:53 UTC (1 hour ago):

KDAL 270453Z 16007KT 10SM FEW250 26/13 A3000 RMK AO2 SLP152 T02560128

Aviation forecast (TAF) for Dallas Love Field

Retrieved 2021/09/27 06:27 UTC (0 seconds ago):

TAF KDAL 270524Z 2706/2806 16007KT P6SM SCT250